createdAt,value
2022-08-30T00:00:49.300Z,100.00
2022-08-30T00:10:51.476Z,100.00
2022-08-30T00:20:56.135Z,100.00
2022-08-30T00:31:01.652Z,100.00
2022-08-30T00:41:05.349Z,100.00
2022-08-30T00:51:14.051Z,100.00
2022-08-30T01:01:16.678Z,100.00
2022-08-30T01:11:21.425Z,100.00
2022-08-30T01:21:35.679Z,100.00
2022-08-30T01:31:42.783Z,100.00
2022-08-30T01:41:49.335Z,100.00
2022-08-30T01:52:00.702Z,100.00
2022-08-30T02:02:06.700Z,100.00
2022-08-30T02:12:09.106Z,100.00
2022-08-30T02:22:13.159Z,100.00
2022-08-30T02:32:25.847Z,100.00
2022-08-30T02:42:27.946Z,100.00
2022-08-30T02:52:33.076Z,100.00
2022-08-30T03:02:37.579Z,100.00
2022-08-30T03:12:39.647Z,100.00
2022-08-30T03:22:44.021Z,100.00
2022-08-30T03:32:48.300Z,100.00
2022-08-30T03:42:52.875Z,100.00
2022-08-30T03:52:56.807Z,100.00
2022-08-30T04:03:03.348Z,100.00
2022-08-30T04:13:08.033Z,100.00
2022-08-30T04:23:12.650Z,100.00
2022-08-30T04:33:16.058Z,100.00
2022-08-30T04:43:18.444Z,100.00
2022-08-30T04:53:23.562Z,100.00
2022-08-30T05:03:25.669Z,100.00
2022-08-30T05:13:35.226Z,100.00
2022-08-30T05:23:39.789Z,100.00
2022-08-30T05:33:46.297Z,100.00
2022-08-30T05:43:56.022Z,100.00
2022-08-30T05:54:01.414Z,100.00
2022-08-30T06:04:12.220Z,100.00
2022-08-30T06:14:15.103Z,100.00
2022-08-30T06:24:24.878Z,100.00
2022-08-30T06:34:40.423Z,99.98
2022-08-30T06:44:45.667Z,99.86
2022-08-30T06:54:48.195Z,97.79
2022-08-30T07:04:50.583Z,96.80
2022-08-30T07:14:54.984Z,97.21
2022-08-30T07:24:59.966Z,99.21
2022-08-30T07:35:05.036Z,98.02
2022-08-30T07:45:10.426Z,95.81
2022-08-30T07:55:16.213Z,94.64
2022-08-30T08:05:22.049Z,92.28
2022-08-30T08:15:30.376Z,92.45
2022-08-30T08:25:39.719Z,91.58
2022-08-30T08:35:44.206Z,88.80
2022-08-30T08:45:58.323Z,88.25
2022-08-30T08:56:00.398Z,87.29
2022-08-30T09:06:16.918Z,84.42
2022-08-30T09:16:55.779Z,82.71
2022-08-30T09:27:26.377Z,80.98
2022-08-30T09:37:33.321Z,82.56
2022-08-30T09:47:47.112Z,82.89
2022-08-30T09:58:10.787Z,82.23
2022-08-30T10:08:18.941Z,80.75
2022-08-30T10:18:53.746Z,82.71
2022-08-30T10:29:06.738Z,82.36
2022-08-30T10:39:10.887Z,79.64
2022-08-30T10:49:27.838Z,82.24
2022-08-30T10:59:32.232Z,81.03
2022-08-30T11:09:40.264Z,81.44
2022-08-30T11:19:44.750Z,85.17
2022-08-30T11:29:49.842Z,83.17
2022-08-30T11:39:58.467Z,79.52
2022-08-30T11:50:13.588Z,76.42
2022-08-30T12:00:31.538Z,71.42
2022-08-30T12:10:42.629Z,68.59
2022-08-30T12:20:49.548Z,67.65
2022-08-30T12:30:52.027Z,68.38
2022-08-30T12:41:04.900Z,67.94
2022-08-30T12:51:11.072Z,67.33
2022-08-30T13:01:16.339Z,65.66
2022-08-30T13:11:22.755Z,67.47
2022-08-30T13:21:32.273Z,69.31
2022-08-30T13:31:36.472Z,69.29
2022-08-30T13:41:41.617Z,67.61
2022-08-30T13:51:58.246Z,68.05
2022-08-30T14:02:12.786Z,69.45
2022-08-30T14:12:15.644Z,70.62
2022-08-30T14:22:20.876Z,70.51
2022-08-30T14:32:30.122Z,71.15
2022-08-30T14:42:33.368Z,69.72
2022-08-30T14:52:37.687Z,70.21
2022-08-30T15:02:43.622Z,72.98
2022-08-30T15:12:53.804Z,75.09
2022-08-30T15:23:00.246Z,76.00
2022-08-30T15:33:14.074Z,78.06
2022-08-30T15:43:19.968Z,79.08
2022-08-30T15:53:29.408Z,79.86
2022-08-30T16:03:55.120Z,78.38
2022-08-30T16:14:02.617Z,79.00
2022-08-30T16:24:10.408Z,78.40
2022-08-30T16:34:14.696Z,79.01
2022-08-30T16:44:21.293Z,79.53
2022-08-30T16:54:23.879Z,79.56
2022-08-30T17:04:28.426Z,79.47
2022-08-30T17:14:33.611Z,79.60
2022-08-30T17:24:38.844Z,80.78
2022-08-30T17:34:46.378Z,81.00
2022-08-30T17:44:51.580Z,80.83
2022-08-30T17:54:53.898Z,81.23
2022-08-30T18:04:59.193Z,82.04
2022-08-30T18:15:12.185Z,84.44
2022-08-30T18:25:14.992Z,86.38
2022-08-30T18:35:20.402Z,88.32
2022-08-30T18:45:24.477Z,89.84
2022-08-30T18:55:33.913Z,91.55
2022-08-30T19:05:35.994Z,93.55
2022-08-30T19:15:39.092Z,94.87
2022-08-30T19:25:42.323Z,95.30
2022-08-30T19:35:51.469Z,95.42
2022-08-30T19:45:58.214Z,95.88
2022-08-30T19:56:06.354Z,95.84
2022-08-30T20:06:16.885Z,97.09
2022-08-30T20:16:37.469Z,97.86
2022-08-30T20:26:43.729Z,98.73
2022-08-30T20:36:47.950Z,99.26
2022-08-30T20:46:50.959Z,100.00
2022-08-30T20:56:53.194Z,100.00
2022-08-30T21:06:55.249Z,100.00
2022-08-30T21:16:57.457Z,100.00
2022-08-30T21:27:03.004Z,100.00
2022-08-30T21:37:05.356Z,100.00
2022-08-30T21:47:07.448Z,100.00
2022-08-30T21:57:11.816Z,100.00
2022-08-30T22:07:14.375Z,100.00
2022-08-30T22:17:16.581Z,100.00
2022-08-30T22:27:24.766Z,100.00
2022-08-30T22:37:31.871Z,100.00
2022-08-30T22:47:34.566Z,100.00
2022-08-30T22:57:43.011Z,100.00
2022-08-30T23:07:45.576Z,100.00
2022-08-30T23:17:50.655Z,100.00
2022-08-30T23:28:17.489Z,100.00
2022-08-30T23:38:44.179Z,100.00
2022-08-30T23:49:07.201Z,100.00
2022-08-30T23:59:30.221Z,99.71
